Terminal Aerodrome Forecast
Issued by NWS Chicago, IL

Home | Current Version | Previous Version | Graphics & Text | Print | Product List | Glossary On
Versions: 1 2 3 4 5 6 7 8 9 10 11 12 13 14 15 16 17 18 19 20 21 22 23 24 25 26 27 28 29 30 31 32
000
FTUS43 KLOT 282300 AAA
TAFRFD
TAF AMD
KRFD 282343Z 2900/2924 10007KT P6SM -RA SCT040 OVC060
     FM290200 12007KT P6SM OVC050
     FM290900 15007KT P6SM VCTS BKN050CB OVC080
     FM291200 19008KT P6SM SCT050
     FM291700 20013G20KT P6SM SCT060 BKN100 PROB30 2918/2922 5SM
      TSRA BR BKN050CB=

USA.gov is the U.S. government's official web portal to all federal, state and local government web resources and services.